Terminal Aerodrome Forecast
Issued by NWS

Home | Current Version | Previous Version | Text Only | Print | Product List | Glossary On
Versions: 1 2 3 4 5 6 7 8 9 10 11 12 13 14 15 16 17 18 19
000
FTUS43 KDTX 102327
TAFYIP
TAF
KYIP 102327Z 1100/1124 24010KT 6SM -SHSN OVC025
     FM110600 30008KT P6SM BKN035
     FM110800 VRB03KT P6SM SCT025 BKN200
     FM111500 17005KT 4SM -SN OVC025
     FM112100 17008KT 1SM -SN SCT008 OVC015=

USA.gov is the U.S. government's official web portal to all federal, state and local government web resources and services.